sensor_id;sensor_type;location;lat;lon;timestamp;P1;durP1;ratioP1;P2;durP2;ratioP2
57311;SDS011;43154;50.966;18.316;2023-03-13T00:01:11;20.40;;;6.90;;
57311;SDS011;43154;50.966;18.316;2023-03-13T00:03:42;17.90;;;7.00;;
57311;SDS011;43154;50.966;18.316;2023-03-13T00:06:07;18.20;;;7.10;;
57311;SDS011;43154;50.966;18.316;2023-03-13T00:08:34;18.70;;;7.40;;
57311;SDS011;43154;50.966;18.316;2023-03-13T00:11:04;18.60;;;7.10;;
57311;SDS011;43154;50.966;18.316;2023-03-13T00:13:31;18.10;;;7.30;;
57311;SDS011;43154;50.966;18.316;2023-03-13T00:16:00;17.90;;;7.20;;
57311;SDS011;43154;50.966;18.316;2023-03-13T00:18:27;19.80;;;8.00;;
57311;SDS011;43154;50.966;18.316;2023-03-13T00:20:59;18.70;;;7.90;;
57311;SDS011;43154;50.966;18.316;2023-03-13T00:23:26;17.50;;;7.60;;
57311;SDS011;43154;50.966;18.316;2023-03-13T00:25:59;19.60;;;7.50;;
57311;SDS011;43154;50.966;18.316;2023-03-13T00:28:26;17.60;;;6.40;;
57311;SDS011;43154;50.966;18.316;2023-03-13T00:31:16;18.30;;;7.10;;
57311;SDS011;43154;50.966;18.316;2023-03-13T00:33:46;14.90;;;6.40;;
57311;SDS011;43154;50.966;18.316;2023-03-13T00:36:15;18.00;;;7.50;;
57311;SDS011;43154;50.966;18.316;2023-03-13T00:38:42;16.30;;;6.60;;
57311;SDS011;43154;50.966;18.316;2023-03-13T00:41:12;16.20;;;6.10;;
57311;SDS011;43154;50.966;18.316;2023-03-13T00:43:40;16.40;;;6.60;;
57311;SDS011;43154;50.966;18.316;2023-03-13T00:46:07;16.40;;;6.20;;
57311;SDS011;43154;50.966;18.316;2023-03-13T00:48:34;18.40;;;6.80;;
57311;SDS011;43154;50.966;18.316;2023-03-13T00:51:01;16.10;;;6.50;;
57311;SDS011;43154;50.966;18.316;2023-03-13T00:53:27;15.80;;;6.00;;
57311;SDS011;43154;50.966;18.316;2023-03-13T00:55:57;15.50;;;6.30;;
57311;SDS011;43154;50.966;18.316;2023-03-13T00:58:26;17.80;;;6.10;;
57311;SDS011;43154;50.966;18.316;2023-03-13T01:00:54;14.80;;;5.80;;
57311;SDS011;43154;50.966;18.316;2023-03-13T01:03:21;16.30;;;6.80;;
57311;SDS011;43154;50.966;18.316;2023-03-13T01:05:58;17.60;;;7.00;;
57311;SDS011;43154;50.966;18.316;2023-03-13T01:08:29;17.50;;;7.00;;
57311;SDS011;43154;50.966;18.316;2023-03-13T01:11:06;16.60;;;6.30;;
57311;SDS011;43154;50.966;18.316;2023-03-13T01:13:37;17.00;;;7.10;;
57311;SDS011;43154;50.966;18.316;2023-03-13T01:16:20;16.50;;;7.00;;
57311;SDS011;43154;50.966;18.316;2023-03-13T01:18:47;17.80;;;6.70;;
57311;SDS011;43154;50.966;18.316;2023-03-13T01:21:16;16.90;;;6.90;;
57311;SDS011;43154;50.966;18.316;2023-03-13T01:23:44;18.70;;;6.80;;
57311;SDS011;43154;50.966;18.316;2023-03-13T01:26:16;17.80;;;6.40;;
57311;SDS011;43154;50.966;18.316;2023-03-13T01:28:45;16.80;;;6.60;;
57311;SDS011;43154;50.966;18.316;2023-03-13T01:31:12;16.40;;;6.90;;
57311;SDS011;43154;50.966;18.316;2023-03-13T01:33:40;17.00;;;6.60;;
57311;SDS011;43154;50.966;18.316;2023-03-13T01:36:07;16.50;;;6.70;;
57311;SDS011;43154;50.966;18.316;2023-03-13T01:38:34;17.30;;;7.10;;
57311;SDS011;43154;50.966;18.316;2023-03-13T01:41:00;17.50;;;6.90;;
57311;SDS011;43154;50.966;18.316;2023-03-13T01:43:28;15.40;;;5.70;;
57311;SDS011;43154;50.966;18.316;2023-03-13T01:51:09;15.60;;;6.00;;
57311;SDS011;43154;50.966;18.316;2023-03-13T01:53:38;15.60;;;6.40;;
57311;SDS011;43154;50.966;18.316;2023-03-13T01:56:08;15.10;;;6.60;;
57311;SDS011;43154;50.966;18.316;2023-03-13T01:58:39;14.70;;;6.20;;
57311;SDS011;43154;50.966;18.316;2023-03-13T02:01:06;16.00;;;6.30;;
57311;SDS011;43154;50.966;18.316;2023-03-13T02:03:32;16.50;;;6.60;;
57311;SDS011;43154;50.966;18.316;2023-03-13T02:06:00;16.50;;;6.60;;
57311;SDS011;43154;50.966;18.316;2023-03-13T02:08:39;15.50;;;5.80;;
57311;SDS011;43154;50.966;18.316;2023-03-13T02:11:16;15.00;;;6.20;;
57311;SDS011;43154;50.966;18.316;2023-03-13T02:13:47;16.20;;;5.90;;
57311;SDS011;43154;50.966;18.316;2023-03-13T02:16:18;17.00;;;5.80;;
57311;SDS011;43154;50.966;18.316;2023-03-13T02:18:47;15.50;;;5.60;;
57311;SDS011;43154;50.966;18.316;2023-03-13T02:21:16;16.80;;;6.60;;
57311;SDS011;43154;50.966;18.316;2023-03-13T02:24:16;15.90;;;6.20;;
57311;SDS011;43154;50.966;18.316;2023-03-13T02:26:48;14.80;;;5.80;;
57311;SDS011;43154;50.966;18.316;2023-03-13T02:29:16;14.80;;;6.10;;
57311;SDS011;43154;50.966;18.316;2023-03-13T02:31:44;14.80;;;6.40;;
57311;SDS011;43154;50.966;18.316;2023-03-13T02:34:11;15.10;;;6.20;;
57311;SDS011;43154;50.966;18.316;2023-03-13T02:36:40;15.30;;;6.10;;
57311;SDS011;43154;50.966;18.316;2023-03-13T02:39:06;14.10;;;5.80;;
57311;SDS011;43154;50.966;18.316;2023-03-13T02:41:33;14.40;;;5.80;;
57311;SDS011;43154;50.966;18.316;2023-03-13T02:44:00;15.60;;;6.40;;
57311;SDS011;43154;50.966;18.316;2023-03-13T02:46:33;15.10;;;6.30;;
57311;SDS011;43154;50.966;18.316;2023-03-13T02:49:29;15.10;;;6.40;;
57311;SDS011;43154;50.966;18.316;2023-03-13T02:52:11;14.40;;;5.60;;
57311;SDS011;43154;50.966;18.316;2023-03-13T02:54:42;14.80;;;6.50;;
57311;SDS011;43154;50.966;18.316;2023-03-13T02:57:10;16.50;;;6.50;;
57311;SDS011;43154;50.966;18.316;2023-03-13T02:59:36;15.50;;;6.20;;
57311;SDS011;43154;50.966;18.316;2023-03-13T03:02:03;15.90;;;6.70;;
57311;SDS011;43154;50.966;18.316;2023-03-13T03:04:29;15.80;;;7.00;;
57311;SDS011;43154;50.966;18.316;2023-03-13T03:06:55;18.10;;;7.50;;
57311;SDS011;43154;50.966;18.316;2023-03-13T03:09:24;17.70;;;8.00;;
57311;SDS011;43154;50.966;18.316;2023-03-13T03:11:53;16.60;;;7.20;;
57311;SDS011;43154;50.966;18.316;2023-03-13T03:14:18;14.90;;;6.50;;
57311;SDS011;43154;50.966;18.316;2023-03-13T03:16:57;15.70;;;6.80;;
57311;SDS011;43154;50.966;18.316;2023-03-13T03:19:25;17.90;;;7.30;;
57311;SDS011;43154;50.966;18.316;2023-03-13T03:21:51;15.70;;;7.10;;
57311;SDS011;43154;50.966;18.316;2023-03-13T03:24:17;14.40;;;7.00;;
57311;SDS011;43154;50.966;18.316;2023-03-13T03:26:45;15.90;;;7.30;;
57311;SDS011;43154;50.966;18.316;2023-03-13T03:29:13;20.90;;;9.00;;
57311;SDS011;43154;50.966;18.316;2023-03-13T03:31:42;18.30;;;8.20;;
57311;SDS011;43154;50.966;18.316;2023-03-13T03:34:08;19.50;;;8.20;;
57311;SDS011;43154;50.966;18.316;2023-03-13T03:36:34;18.00;;;7.80;;
57311;SDS011;43154;50.966;18.316;2023-03-13T03:39:00;16.70;;;7.80;;
57311;SDS011;43154;50.966;18.316;2023-03-13T03:41:26;19.90;;;9.30;;
57311;SDS011;43154;50.966;18.316;2023-03-13T03:43:52;16.10;;;7.60;;
57311;SDS011;43154;50.966;18.316;2023-03-13T03:46:19;17.20;;;8.00;;
57311;SDS011;43154;50.966;18.316;2023-03-13T03:48:45;19.60;;;8.20;;
57311;SDS011;43154;50.966;18.316;2023-03-13T03:51:14;18.40;;;8.40;;
57311;SDS011;43154;50.966;18.316;2023-03-13T03:53:47;21.00;;;9.30;;
57311;SDS011;43154;50.966;18.316;2023-03-13T03:56:14;23.50;;;9.90;;
57311;SDS011;43154;50.966;18.316;2023-03-13T03:58:42;23.20;;;10.00;;
57311;SDS011;43154;50.966;18.316;2023-03-13T04:01:08;21.20;;;9.00;;
57311;SDS011;43154;50.966;18.316;2023-03-13T04:03:40;20.70;;;8.90;;
57311;SDS011;43154;50.966;18.316;2023-03-13T04:06:09;19.60;;;9.30;;
57311;SDS011;43154;50.966;18.316;2023-03-13T04:08:38;25.80;;;10.00;;
57311;SDS011;43154;50.966;18.316;2023-03-13T04:11:05;22.70;;;9.90;;
57311;SDS011;43154;50.966;18.316;2023-03-13T04:13:32;22.90;;;10.20;;
57311;SDS011;43154;50.966;18.316;2023-03-13T04:16:05;21.60;;;10.30;;
57311;SDS011;43154;50.966;18.316;2023-03-13T04:18:33;20.40;;;8.90;;
57311;SDS011;43154;50.966;18.316;2023-03-13T04:21:05;22.10;;;10.10;;
57311;SDS011;43154;50.966;18.316;2023-03-13T04:23:31;22.40;;;9.80;;
57311;SDS011;43154;50.966;18.316;2023-03-13T04:26:01;22.90;;;9.70;;
57311;SDS011;43154;50.966;18.316;2023-03-13T04:28:28;22.10;;;10.40;;
57311;SDS011;43154;50.966;18.316;2023-03-13T04:30:54;25.70;;;10.30;;
57311;SDS011;43154;50.966;18.316;2023-03-13T04:33:22;29.40;;;10.90;;
57311;SDS011;43154;50.966;18.316;2023-03-13T04:35:50;27.80;;;11.60;;
57311;SDS011;43154;50.966;18.316;2023-03-13T04:38:18;24.10;;;10.40;;
57311;SDS011;43154;50.966;18.316;2023-03-13T04:40:50;22.20;;;10.00;;
57311;SDS011;43154;50.966;18.316;2023-03-13T04:43:16;20.90;;;9.60;;
57311;SDS011;43154;50.966;18.316;2023-03-13T04:45:42;19.80;;;9.40;;
57311;SDS011;43154;50.966;18.316;2023-03-13T04:48:08;21.80;;;10.60;;
57311;SDS011;43154;50.966;18.316;2023-03-13T04:50:34;29.10;;;13.40;;
57311;SDS011;43154;50.966;18.316;2023-03-13T04:53:00;23.10;;;10.30;;
57311;SDS011;43154;50.966;18.316;2023-03-13T04:55:26;23.50;;;10.40;;
57311;SDS011;43154;50.966;18.316;2023-03-13T04:57:52;21.30;;;9.20;;
57311;SDS011;43154;50.966;18.316;2023-03-13T05:00:22;23.70;;;10.40;;
57311;SDS011;43154;50.966;18.316;2023-03-13T05:02:53;20.10;;;9.30;;
57311;SDS011;43154;50.966;18.316;2023-03-13T05:05:19;20.20;;;9.30;;
57311;SDS011;43154;50.966;18.316;2023-03-13T05:07:45;23.20;;;9.70;;
57311;SDS011;43154;50.966;18.316;2023-03-13T05:10:12;19.80;;;9.20;;
57311;SDS011;43154;50.966;18.316;2023-03-13T05:12:39;19.70;;;9.40;;
57311;SDS011;43154;50.966;18.316;2023-03-13T05:15:05;19.60;;;8.70;;
57311;SDS011;43154;50.966;18.316;2023-03-13T05:17:35;21.40;;;10.10;;
57311;SDS011;43154;50.966;18.316;2023-03-13T05:20:02;23.10;;;9.90;;
57311;SDS011;43154;50.966;18.316;2023-03-13T05:22:32;23.60;;;9.70;;
57311;SDS011;43154;50.966;18.316;2023-03-13T05:24:57;21.00;;;9.90;;
57311;SDS011;43154;50.966;18.316;2023-03-13T05:27:23;19.90;;;9.60;;
57311;SDS011;43154;50.966;18.316;2023-03-13T05:29:50;22.40;;;10.50;;
57311;SDS011;43154;50.966;18.316;2023-03-13T05:32:16;22.60;;;10.10;;
57311;SDS011;43154;50.966;18.316;2023-03-13T05:34:47;23.20;;;11.10;;
57311;SDS011;43154;50.966;18.316;2023-03-13T05:37:13;25.90;;;10.90;;
57311;SDS011;43154;50.966;18.316;2023-03-13T05:39:43;27.90;;;12.70;;
57311;SDS011;43154;50.966;18.316;2023-03-13T05:42:10;31.50;;;14.30;;
57311;SDS011;43154;50.966;18.316;2023-03-13T05:44:38;28.50;;;12.70;;
57311;SDS011;43154;50.966;18.316;2023-03-13T05:47:05;26.20;;;12.40;;
57311;SDS011;43154;50.966;18.316;2023-03-13T05:49:31;25.40;;;12.00;;
57311;SDS011;43154;50.966;18.316;2023-03-13T05:51:57;26.30;;;11.60;;
57311;SDS011;43154;50.966;18.316;2023-03-13T05:54:23;26.50;;;11.80;;
57311;SDS011;43154;50.966;18.316;2023-03-13T05:56:52;24.30;;;11.70;;
57311;SDS011;43154;50.966;18.316;2023-03-13T05:59:18;26.00;;;11.40;;
57311;SDS011;43154;50.966;18.316;2023-03-13T06:01:48;27.90;;;12.30;;
57311;SDS011;43154;50.966;18.316;2023-03-13T06:04:14;28.80;;;13.10;;
57311;SDS011;43154;50.966;18.316;2023-03-13T06:06:40;34.80;;;16.30;;
57311;SDS011;43154;50.966;18.316;2023-03-13T06:09:07;35.40;;;17.10;;
57311;SDS011;43154;50.966;18.316;2023-03-13T06:11:36;36.20;;;17.30;;
57311;SDS011;43154;50.966;18.316;2023-03-13T06:14:06;33.20;;;16.30;;
57311;SDS011;43154;50.966;18.316;2023-03-13T06:16:32;33.00;;;16.50;;
57311;SDS011;43154;50.966;18.316;2023-03-13T06:18:59;30.30;;;15.90;;
57311;SDS011;43154;50.966;18.316;2023-03-13T06:21:27;35.00;;;16.60;;
57311;SDS011;43154;50.966;18.316;2023-03-13T06:23:54;32.00;;;16.10;;
57311;SDS011;43154;50.966;18.316;2023-03-13T06:26:23;30.70;;;14.30;;
57311;SDS011;43154;50.966;18.316;2023-03-13T06:28:51;33.50;;;16.30;;
57311;SDS011;43154;50.966;18.316;2023-03-13T06:31:21;32.00;;;14.20;;
57311;SDS011;43154;50.966;18.316;2023-03-13T06:33:47;33.30;;;14.10;;
57311;SDS011;43154;50.966;18.316;2023-03-13T06:36:15;29.00;;;12.40;;
57311;SDS011;43154;50.966;18.316;2023-03-13T06:38:46;28.10;;;14.30;;
57311;SDS011;43154;50.966;18.316;2023-03-13T06:41:13;23.20;;;11.90;;
57311;SDS011;43154;50.966;18.316;2023-03-13T06:43:41;24.90;;;10.90;;
57311;SDS011;43154;50.966;18.316;2023-03-13T06:46:13;24.10;;;10.70;;
57311;SDS011;43154;50.966;18.316;2023-03-13T06:48:44;21.90;;;10.90;;
57311;SDS011;43154;50.966;18.316;2023-03-13T06:51:23;23.20;;;11.30;;
57311;SDS011;43154;50.966;18.316;2023-03-13T06:54:06;25.50;;;11.30;;
57311;SDS011;43154;50.966;18.316;2023-03-13T06:56:35;25.20;;;12.20;;
57311;SDS011;43154;50.966;18.316;2023-03-13T06:59:06;25.90;;;10.80;;
57311;SDS011;43154;50.966;18.316;2023-03-13T07:01:41;25.70;;;10.70;;
57311;SDS011;43154;50.966;18.316;2023-03-13T07:04:16;27.80;;;11.10;;
57311;SDS011;43154;50.966;18.316;2023-03-13T07:06:48;21.30;;;10.10;;
57311;SDS011;43154;50.966;18.316;2023-03-13T07:09:24;23.40;;;10.20;;
57311;SDS011;43154;50.966;18.316;2023-03-13T07:11:52;24.10;;;10.10;;
57311;SDS011;43154;50.966;18.316;2023-03-13T07:14:27;21.10;;;10.30;;
57311;SDS011;43154;50.966;18.316;2023-03-13T07:16:53;20.70;;;9.60;;
57311;SDS011;43154;50.966;18.316;2023-03-13T07:19:25;25.00;;;10.10;;
57311;SDS011;43154;50.966;18.316;2023-03-13T07:24:23;20.80;;;8.90;;
57311;SDS011;43154;50.966;18.316;2023-03-13T07:26:52;21.40;;;9.20;;
57311;SDS011;43154;50.966;18.316;2023-03-13T07:29:24;22.50;;;9.40;;
57311;SDS011;43154;50.966;18.316;2023-03-13T07:31:52;23.40;;;9.10;;
57311;SDS011;43154;50.966;18.316;2023-03-13T07:34:22;19.00;;;8.60;;
57311;SDS011;43154;50.966;18.316;2023-03-13T07:36:53;25.00;;;9.70;;
57311;SDS011;43154;50.966;18.316;2023-03-13T07:39:19;22.50;;;8.60;;
57311;SDS011;43154;50.966;18.316;2023-03-13T07:41:45;18.10;;;8.30;;
57311;SDS011;43154;50.966;18.316;2023-03-13T07:44:22;20.60;;;9.10;;
57311;SDS011;43154;50.966;18.316;2023-03-13T07:46:54;21.40;;;9.40;;
57311;SDS011;43154;50.966;18.316;2023-03-13T07:49:29;23.20;;;9.20;;
57311;SDS011;43154;50.966;18.316;2023-03-13T07:52:10;25.60;;;9.20;;
57311;SDS011;43154;50.966;18.316;2023-03-13T07:54:42;17.70;;;8.00;;
57311;SDS011;43154;50.966;18.316;2023-03-13T07:57:11;19.90;;;8.00;;
57311;SDS011;43154;50.966;18.316;2023-03-13T07:59:43;22.40;;;8.00;;
57311;SDS011;43154;50.966;18.316;2023-03-13T08:02:14;23.40;;;7.50;;
57311;SDS011;43154;50.966;18.316;2023-03-13T08:04:42;18.40;;;7.20;;
57311;SDS011;43154;50.966;18.316;2023-03-13T08:07:14;17.20;;;6.80;;
57311;SDS011;43154;50.966;18.316;2023-03-13T08:09:43;17.90;;;7.20;;
57311;SDS011;43154;50.966;18.316;2023-03-13T08:12:11;18.70;;;6.40;;
57311;SDS011;43154;50.966;18.316;2023-03-13T08:14:50;19.70;;;6.80;;
57311;SDS011;43154;50.966;18.316;2023-03-13T08:17:19;19.60;;;6.90;;
57311;SDS011;43154;50.966;18.316;2023-03-13T08:19:51;20.90;;;7.60;;
57311;SDS011;43154;50.966;18.316;2023-03-13T08:22:23;20.40;;;6.70;;
57311;SDS011;43154;50.966;18.316;2023-03-13T08:24:52;20.30;;;6.80;;
57311;SDS011;43154;50.966;18.316;2023-03-13T08:27:20;17.30;;;6.20;;
57311;SDS011;43154;50.966;18.316;2023-03-13T08:29:54;15.80;;;6.00;;
57311;SDS011;43154;50.966;18.316;2023-03-13T08:32:26;21.50;;;7.70;;
57311;SDS011;43154;50.966;18.316;2023-03-13T08:34:58;19.50;;;7.10;;
57311;SDS011;43154;50.966;18.316;2023-03-13T08:37:26;20.40;;;6.80;;
57311;SDS011;43154;50.966;18.316;2023-03-13T08:39:57;22.50;;;6.80;;
57311;SDS011;43154;50.966;18.316;2023-03-13T09:14:35;16.80;;;6.30;;
57311;SDS011;43154;50.966;18.316;2023-03-13T09:17:14;13.60;;;5.40;;
57311;SDS011;43154;50.966;18.316;2023-03-13T09:19:43;17.40;;;5.40;;
57311;SDS011;43154;50.966;18.316;2023-03-13T09:22:15;17.00;;;6.20;;
57311;SDS011;43154;50.966;18.316;2023-03-13T09:24:41;16.00;;;5.30;;
57311;SDS011;43154;50.966;18.316;2023-03-13T09:27:15;16.80;;;5.50;;
57311;SDS011;43154;50.966;18.316;2023-03-13T09:29:47;19.50;;;7.90;;
57311;SDS011;43154;50.966;18.316;2023-03-13T09:32:21;22.00;;;8.50;;
57311;SDS011;43154;50.966;18.316;2023-03-13T09:37:24;15.10;;;5.40;;
57311;SDS011;43154;50.966;18.316;2023-03-13T09:39:54;15.30;;;5.10;;
57311;SDS011;43154;50.966;18.316;2023-03-13T09:42:25;16.30;;;5.00;;
57311;SDS011;43154;50.966;18.316;2023-03-13T09:51:07;14.60;;;4.80;;
57311;SDS011;43154;50.966;18.316;2023-03-13T09:56:43;15.20;;;4.70;;
57311;SDS011;43154;50.966;18.316;2023-03-13T09:59:18;13.90;;;4.10;;
57311;SDS011;43154;50.966;18.316;2023-03-13T10:01:49;14.40;;;4.60;;
57311;SDS011;43154;50.966;18.316;2023-03-13T10:07:03;14.00;;;4.10;;
57311;SDS011;43154;50.966;18.316;2023-03-13T10:09:36;17.20;;;4.10;;
57311;SDS011;43154;50.966;18.316;2023-03-13T10:12:22;20.10;;;4.80;;
